»·PEaware :: WAT202 KPHX-KLAS

WAT202 :: KPHX-KLAS

FLIGHT INFORMATION

Flight Status: Arrived
Operator:
Walker Air Transport
More flights by this operator :: More flights under this callsign
Pilot: Nick L. (7253)
Aircraft: AIRBUS A300ST Super Transporter
(A3ST)
More flights by this aircraft type
Origin: KPHX Phoenix Sky Harbor Intl
United States
Destination: KLAS Harry Reid Intl
United States
More flights between these airports :: More routes between these airports
Route: ZEPER2 RRSTA ELLDA RKSTR1
File this flight plan on PilotEdge
Remarks: RMK / SIMBRIEF
Altitude:
(Current/Filed)
28,000ft
Speed:
(Current/Filed)
407kts
Departed: 07-Mar-21 12:41 PM
Arrived: 07-Mar-21 01:27 PM
Distance/Time
Traveled:
222nm/0:45
Distance/Time
To Go:
Arrived

Flight Plot

Page will automatically refresh every two minutes.

Flight plan parsing failed; only flown route is shown


Map Options




Map Legend


Flown Route
Filed Route
Departure Airport
Arrival Airport
Navaid (VOR, NDB)
Fix

Horizontal Profiles

Position Reports

Time Latitude Longitude Heading Altitude Ground
Speed
07-Mar-21 12:14 33.425275 -112.017866 90 1152ft 0kts
07-Mar-21 12:15 33.425275 -112.017866 90 1152ft 0kts
07-Mar-21 12:16 33.425275 -112.017866 90 1152ft 0kts
07-Mar-21 12:17 33.425275 -112.017866 90 1152ft 0kts
07-Mar-21 12:18 33.425275 -112.017866 90 1152ft 0kts
07-Mar-21 12:19 33.425275 -112.017866 90 1152ft 0kts
07-Mar-21 12:20 33.425275 -112.017866 90 1152ft 0kts
07-Mar-21 12:21 33.425275 -112.017866 90 1152ft 0kts
07-Mar-21 12:22 33.425275 -112.017866 90 1152ft 0kts
07-Mar-21 12:23 33.425275 -112.017866 90 1152ft 0kts
07-Mar-21 12:24 33.425275 -112.017866 90 1152ft 0kts
07-Mar-21 12:25 33.425275 -112.017866 90 1152ft 0kts
07-Mar-21 12:26 33.425275 -112.017866 90 1152ft 0kts
07-Mar-21 12:27 33.425275 -112.017866 90 1152ft 0kts
07-Mar-21 12:28 33.425275 -112.017866 90 1152ft 0kts
07-Mar-21 12:29 33.425275 -112.017866 90 1152ft 0kts
07-Mar-21 12:30 33.425275 -112.017866 90 1152ft 0kts
07-Mar-21 12:31 33.425275 -112.017866 90 1152ft 0kts
07-Mar-21 12:32 33.425275 -112.017866 90 1152ft 0kts
07-Mar-21 12:33 33.425275 -112.017866 90 1152ft 0kts
07-Mar-21 12:34 33.425275 -112.017866 90 1152ft 0kts
07-Mar-21 12:35 33.425275 -112.017751 88 1152ft 1kts
07-Mar-21 12:36 33.427011 -112.017372 0 1152ft 0kts
07-Mar-21 12:37 33.427743 -112.019090 269 1152ft 9kts
07-Mar-21 12:38 33.427735 -112.023708 270 1152ft 16kts
07-Mar-21 12:39 33.428860 -112.026467 90 1152ft 7kts
07-Mar-21 12:40 33.429291 -111.986790 84 2220ft 191kts
07-Mar-21 12:41 33.433742 -111.921435 85 5753ft 223kts
07-Mar-21 12:42 33.464395 -111.851909 11 8501ft 297kts
07-Mar-21 12:43 33.549044 -111.844186 1 12022ft 311kts
07-Mar-21 12:44 33.643032 -111.837549 358 13961ft 359kts
07-Mar-21 12:45 33.739021 -111.860504 317 16469ft 354kts
07-Mar-21 12:46 33.797819 -111.955237 303 18490ft 359kts
07-Mar-21 12:47 33.857461 -112.053448 303 20229ft 367kts
07-Mar-21 12:48 33.918389 -112.153672 303 21518ft 377kts
07-Mar-21 12:49 33.980180 -112.255577 303 22878ft 379kts
07-Mar-21 12:50 34.047387 -112.355019 315 23773ft 390kts
07-Mar-21 12:51 34.131530 -112.438696 316 24719ft 392kts
07-Mar-21 12:52 34.215548 -112.523273 316 25532ft 392kts
07-Mar-21 12:53 34.299544 -112.608059 316 26216ft 392kts
07-Mar-21 12:54 34.382237 -112.691765 314 27105ft 385kts
07-Mar-21 12:55 34.463356 -112.774099 314 27914ft 378kts
07-Mar-21 12:56 34.543749 -112.855933 314 28212ft 379kts
07-Mar-21 12:57 34.624074 -112.938231 314 28203ft 379kts
07-Mar-21 12:58 34.704572 -113.020570 314 28202ft 380kts
07-Mar-21 12:59 34.780542 -113.111766 303 28193ft 385kts
07-Mar-21 13:00 34.846695 -113.214070 303 28161ft 386kts
07-Mar-21 13:01 34.913381 -113.316440 303 28134ft 386kts
07-Mar-21 13:02 34.982173 -113.416889 313 28129ft 392kts
07-Mar-21 13:03 35.069430 -113.498779 316 28129ft 396kts
07-Mar-21 13:04 35.156607 -113.580662 316 28122ft 396kts
07-Mar-21 13:05 35.244332 -113.663333 316 28062ft 392kts
07-Mar-21 13:06 35.329097 -113.743622 317 25399ft 387kts
07-Mar-21 13:07 35.415967 -113.825936 317 23917ft 393kts
07-Mar-21 13:08 35.501435 -113.907127 317 22418ft 385kts
07-Mar-21 13:09 35.585028 -113.986768 317 20889ft 377kts
07-Mar-21 13:10 35.666639 -114.064721 317 18778ft 365kts
07-Mar-21 13:11 35.746287 -114.141058 316 17064ft 359kts
07-Mar-21 13:12 35.797580 -114.240632 294 15205ft 340kts
07-Mar-21 13:13 35.843599 -114.341276 301 13519ft 338kts
07-Mar-21 13:14 35.899848 -114.432246 303 12223ft 312kts
07-Mar-21 13:15 35.951153 -114.514517 303 11714ft 302kts
07-Mar-21 13:16 36.000807 -114.595023 304 10343ft 280kts
07-Mar-21 13:17 36.041923 -114.664702 299 8989ft 255kts
07-Mar-21 13:18 36.071452 -114.740372 273 8027ft 240kts
07-Mar-21 13:19 36.073275 -114.822333 267 7078ft 225kts
07-Mar-21 13:20 36.073400 -114.891257 267 6085ft 202kts
07-Mar-21 13:21 36.073528 -114.953092 267 5015ft 160kts
07-Mar-21 13:22 36.073576 -115.005723 267 4128ft 151kts
07-Mar-21 13:23 36.073616 -115.056516 268 3324ft 149kts
07-Mar-21 13:24 36.073632 -115.108564 271 2505ft 150kts
07-Mar-21 13:25 36.073678 -115.149814 271 2196ft 54kts
07-Mar-21 13:26 36.074819 -115.155278 299 2195ft 0kts
07-Mar-21 13:27 36.074868 -115.155382 300 2195ft 0kts
07-Mar-21 13:28 36.075805 -115.156702 313 2195ft 20kts
07-Mar-21 13:29 36.078616 -115.157964 50 2195ft 17kts
07-Mar-21 13:30 36.078793 -115.147414 31 2195ft 13kts
07-Mar-21 13:31 36.079869 -115.147083 56 2195ft 0kts

Navigation Log

Ident Type
Flight plan parsing failed, navigation log unavailable